Time;durP1;ratioP1;P1;durP2;ratioP2;P2;SDS_P1;SDS_P2;PMS_P1;PMS_P2;Temp;Humidity;BMP_temperature;BMP_pressure;BME280_temperature;BME280_humidity;BME280_pressure;Samples;Min_cycle;Max_cycle;Signal;HPM_P1;HPM_P2
2022/05/04 00:00:25;;;;;;;9.80;6.70;;;;;;;7.76;89.57;100187.81;5109980;28;20028;-29
2022/05/04 00:02:51;;;;;;;12.25;7.63;;;;;;;7.88;88.90;100177.47;5109890;28;20431;-36
2022/05/04 00:05:16;;;;;;;11.13;7.82;;;;;;;7.83;88.74;100177.25;5091463;28;20032;-31
2022/05/04 00:07:42;;;;;;;13.13;8.25;;;;;;;7.89;88.11;100187.09;5110119;28;20502;-30
2022/05/04 00:10:08;;;;;;;12.52;8.25;;;;;;;7.88;87.76;100174.81;5110104;28;20084;-28
2022/05/04 00:12:34;;;;;;;10.75;7.75;;;;;;;7.52;89.52;100175.88;5091561;28;20062;-30
2022/05/04 00:15:00;;;;;;;12.00;8.18;;;;;;;7.59;89.54;100165.28;5091376;28;20545;-29
2022/05/04 00:17:25;;;;;;;12.13;7.93;;;;;;;7.88;88.30;100187.28;5110088;28;20115;-34
2022/05/04 00:19:51;;;;;;;14.05;8.38;;;;;;;7.97;88.39;100183.44;5110144;28;20031;-33
2022/05/04 00:22:18;;;;;;;11.15;7.95;;;;;;;7.68;88.01;100193.31;5091506;28;20078;-33
2022/05/04 00:24:44;;;;;;;13.10;7.88;;;;;;;7.59;88.83;100191.84;5091750;28;20087;-30
2022/05/04 00:27:10;;;;;;;12.45;8.27;;;;;;;7.43;88.92;100177.84;5091179;28;20078;-29
2022/05/04 00:29:35;;;;;;;13.52;8.70;;;;;;;7.60;88.92;100191.66;5091415;28;20028;-32
2022/05/04 00:32:01;;;;;;;12.43;7.82;;;;;;;7.41;88.73;100182.53;5109786;28;20028;-30
2022/05/04 00:34:26;;;;;;;14.15;9.50;;;;;;;7.34;89.73;100191.50;5109547;28;20038;-35
2022/05/04 00:36:52;;;;;;;11.27;8.50;;;;;;;7.38;89.35;100182.13;5090953;28;20040;-31
2022/05/04 00:39:17;;;;;;;13.07;8.05;;;;;;;7.48;88.89;100201.19;5109600;28;20039;-29
2022/05/04 00:41:43;;;;;;;10.43;7.35;;;;;;;7.38;88.22;100184.78;5109709;28;20376;-30
2022/05/04 00:44:08;;;;;;;10.85;7.60;;;;;;;7.50;87.34;100187.69;5109469;28;20027;-31
2022/05/04 00:46:34;;;;;;;12.57;7.45;;;;;;;7.53;87.07;100182.81;5109263;28;20028;-33
2022/05/04 00:48:59;;;;;;;10.82;7.70;;;;;;;7.43;87.88;100201.75;5109333;28;20053;-30
2022/05/04 00:51:25;;;;;;;9.40;7.10;;;;;;;7.18;87.61;100180.16;5109584;28;20030;-29
2022/05/04 00:53:51;;;;;;;11.90;7.80;;;;;;;7.41;88.38;100200.31;5091139;28;20035;-29
2022/05/04 00:56:16;;;;;;;10.55;7.28;;;;;;;7.22;87.34;100176.09;5109327;28;20512;-29
2022/05/04 00:58:54;;;;;;;10.80;7.82;;;;;;;7.25;88.37;100204.06;5109336;28;20042;-30
2022/05/04 01:01:21;;;;;;;11.90;7.18;;;;;;;7.13;87.96;100187.88;5090679;28;20832;-31
2022/05/04 01:03:46;;;;;;;11.35;7.45;;;;;;;7.15;87.89;100209.75;5090788;28;20555;-30
2022/05/04 01:06:12;;;;;;;10.02;7.22;;;;;;;7.26;87.67;100218.19;5109604;28;20130;-35
2022/05/04 01:08:38;;;;;;;12.65;8.32;;;;;;;7.11;87.51;100205.84;5109482;28;20039;-30
2022/05/04 01:11:04;;;;;;;12.50;8.88;;;;;;;7.11;87.31;100208.47;5089893;28;20589;-32
2022/05/04 01:13:30;;;;;;;11.07;8.13;;;;;;;7.23;87.12;100204.28;5090464;28;20035;-31
2022/05/04 01:15:56;;;;;;;11.65;8.43;;;;;;;7.38;85.86;100190.09;5090080;28;20027;-29
2022/05/04 01:18:21;;;;;;;11.70;7.93;;;;;;;7.23;85.25;100196.31;5108975;28;20100;-28
2022/05/04 01:20:47;;;;;;;11.05;8.30;;;;;;;7.07;85.43;100186.00;5108643;28;20491;-29
2022/05/04 01:23:13;;;;;;;11.90;8.18;;;;;;;6.94;87.67;100193.84;5108567;28;20038;-32
2022/05/04 01:25:38;;;;;;;10.35;7.93;;;;;;;6.80;88.21;100172.56;5090138;28;20481;-29
2022/05/04 01:28:05;;;;;;;9.25;6.68;;;;;;;6.89;87.11;100197.09;5108470;28;20127;-29
2022/05/04 01:30:32;;;;;;;11.85;7.32;;;;;;;6.63;88.24;100195.00;5089831;28;20815;-33
2022/05/04 01:32:58;;;;;;;11.38;7.82;;;;;;;6.55;89.49;100179.25;5108117;28;20027;-32
2022/05/04 01:35:24;;;;;;;11.10;7.85;;;;;;;6.68;88.47;100184.69;5089805;28;20026;-32
2022/05/04 01:37:49;;;;;;;10.68;7.45;;;;;;;6.71;88.27;100172.88;5108440;28;20039;-31
2022/05/04 01:40:15;;;;;;;11.00;7.80;;;;;;;6.96;87.45;100191.81;5108401;28;20023;-31
2022/05/04 01:42:40;;;;;;;12.70;7.25;;;;;;;6.96;86.94;100189.97;5108158;28;20032;-35
2022/05/04 01:45:08;;;;;;;12.80;8.32;;;;;;;6.95;88.18;100190.19;5088997;28;20023;-29
2022/05/04 01:47:34;;;;;;;12.68;8.23;;;;;;;6.99;88.01;100196.75;5089998;28;20020;-30
2022/05/04 01:49:59;;;;;;;13.68;9.32;;;;;;;6.79;89.33;100175.38;5108315;28;20042;-29
2022/05/04 01:52:25;;;;;;;14.30;9.50;;;;;;;6.93;89.66;100193.03;5089614;28;20038;-30
2022/05/04 01:54:51;;;;;;;15.90;9.85;;;;;;;7.01;88.94;100186.78;5107843;28;20534;-31
2022/05/04 01:57:16;;;;;;;14.63;9.82;;;;;;;7.00;89.57;100174.53;5107762;28;20119;-36
2022/05/04 01:59:41;;;;;;;17.77;11.25;;;;;;;7.03;89.65;100171.50;5107963;28;20034;-29
2022/05/04 02:02:07;;;;;;;18.45;11.20;;;;;;;7.11;90.08;100181.13;5108055;28;20032;-28
2022/05/04 02:04:34;;;;;;;17.05;11.63;;;;;;;7.13;88.81;100181.75;5089631;28;20028;-29
2022/05/04 02:07:00;;;;;;;18.85;12.18;;;;;;;7.10;89.93;100193.56;5089237;28;20031;-32
2022/05/04 02:09:27;;;;;;;19.08;11.65;;;;;;;6.96;90.06;100173.25;5089211;28;20410;-32
2022/05/04 02:11:52;;;;;;;16.52;11.60;;;;;;;7.02;90.91;100201.66;5089333;28;20058;-31
2022/05/04 02:14:19;;;;;;;20.60;12.95;;;;;;;7.19;89.47;100200.38;5107663;28;20448;-29
2022/05/04 02:16:45;;;;;;;18.10;11.88;;;;;;;7.23;89.47;100184.88;5107695;28;20494;-30
2022/05/04 02:19:11;;;;;;;16.75;11.00;;;;;;;7.22;89.41;100205.28;5089279;28;20024;-29
2022/05/04 02:21:37;;;;;;;16.40;11.43;;;;;;;7.13;88.82;100187.88;5089503;28;20028;-31
2022/05/04 02:24:02;;;;;;;17.67;11.30;;;;;;;7.14;89.51;100201.97;5107874;28;20085;-29
2022/05/04 02:26:28;;;;;;;18.38;12.10;;;;;;;7.24;88.76;100197.94;5089163;28;20028;-31
2022/05/04 02:28:54;;;;;;;18.13;11.75;;;;;;;7.12;90.22;100194.19;5107106;28;20034;-34
2022/05/04 02:31:19;;;;;;;17.42;12.45;;;;;;;7.18;90.58;100204.03;5089270;28;20089;-35
2022/05/04 02:33:47;;;;;;;17.00;11.43;;;;;;;6.86;92.32;100197.44;5089236;28;20091;-32
2022/05/04 02:38:58;;;;;;;17.45;11.75;;;;;;;7.15;91.76;100203.59;5107160;28;20054;-30
2022/05/04 02:41:23;;;;;;;18.17;10.57;;;;;;;6.95;92.13;100190.19;5107122;28;20023;-31
2022/05/04 02:43:49;;;;;;;22.38;11.98;;;;;;;7.09;92.52;100196.41;5089171;28;20126;-30
2022/05/04 02:46:17;;;;;;;18.83;11.82;;;;;;;7.18;92.10;100204.03;5089167;28;20072;-33
2022/05/04 02:48:43;;;;;;;19.85;12.25;;;;;;;7.43;91.06;100211.53;5089224;28;20031;-30
2022/05/04 02:51:09;;;;;;;17.00;11.73;;;;;;;7.51;90.47;100216.69;5088724;28;20035;-29
2022/05/04 02:53:35;;;;;;;19.83;11.65;;;;;;;7.52;89.82;100222.81;5088674;28;20430;-37
2022/05/04 02:56:01;;;;;;;19.40;12.35;;;;;;;7.57;89.09;100204.47;5089095;28;20058;-29
2022/05/04 02:58:27;;;;;;;19.55;12.70;;;;;;;7.54;88.53;100200.41;5092221;28;20063;-31
2022/05/04 03:00:52;;;;;;;20.50;13.05;;;;;;;7.73;88.96;100233.38;5092958;28;20039;-30
2022/05/04 03:03:18;;;;;;;20.88;11.77;;;;;;;7.81;88.35;100238.50;5111145;28;20028;-31
2022/05/04 03:05:44;;;;;;;17.80;11.95;;;;;;;7.76;87.59;100234.81;5111296;28;20088;-30
2022/05/04 03:08:10;;;;;;;17.35;11.63;;;;;;;7.71;87.51;100230.09;5111222;28;20036;-31
2022/05/04 03:11:54;;;;;;;20.35;12.32;;;;;;;7.63;88.28;100236.38;5092905;28;20556;-33
2022/05/04 03:13:21;;;;;;;18.10;11.70;;;;;;;7.61;88.97;100243.69;5110831;28;20024;-31
2022/05/04 03:15:46;;;;;;;16.25;11.65;;;;;;;7.59;89.06;100239.59;5110931;28;20031;-33
2022/05/04 03:18:11;;;;;;;17.23;10.77;;;;;;;7.69;88.56;100234.78;5110992;28;20031;-30
2022/05/04 03:20:37;;;;;;;18.88;12.38;;;;;;;7.72;88.58;100246.81;5110601;28;20032;-31
2022/05/04 03:23:02;;;;;;;19.42;12.55;;;;;;;7.62;88.45;100240.06;5110455;28;20034;-31
2022/05/04 03:25:28;;;;;;;17.42;11.63;;;;;;;7.59;88.16;100240.44;5110785;28;20034;-31
2022/05/04 03:27:53;;;;;;;17.00;11.18;;;;;;;7.37;88.38;100225.59;5111087;28;20026;-32
2022/05/04 03:30:19;;;;;;;18.70;11.88;;;;;;;7.47;87.92;100226.06;5110637;28;20044;-29
2022/05/04 03:32:44;;;;;;;16.17;11.13;;;;;;;7.61;87.76;100254.31;5110595;28;20027;-30
2022/05/04 03:35:10;;;;;;;18.23;11.18;;;;;;;7.46;88.74;100250.97;5090646;28;20045;-34
2022/05/04 03:37:35;;;;;;;18.02;11.90;;;;;;;7.45;89.27;100254.63;5091460;28;20024;-31
2022/05/04 03:40:00;;;;;;;18.50;11.18;;;;;;;7.40;89.59;100246.44;5110793;28;20111;-30
2022/05/04 03:42:26;;;;;;;16.42;10.98;;;;;;;7.61;89.89;100254.31;5109501;28;20471;-34
2022/05/04 03:44:52;;;;;;;16.88;10.90;;;;;;;7.80;88.49;100266.06;5091894;28;20539;-31
2022/05/04 03:47:17;;;;;;;15.10;11.00;;;;;;;7.90;88.58;100259.59;5109909;28;20035;-30
2022/05/04 03:49:43;;;;;;;18.73;12.20;;;;;;;7.83;88.91;100272.84;5110333;28;20518;-33
2022/05/04 03:52:09;;;;;;;14.30;9.70;;;;;;;7.77;89.67;100266.47;5109983;28;20407;-31
2022/05/04 03:54:36;;;;;;;16.25;10.55;;;;;;;7.74;88.59;100285.44;5091855;28;20020;-33
2022/05/04 03:57:01;;;;;;;15.52;10.65;;;;;;;7.92;88.76;100279.63;5109944;28;20478;-36
2022/05/04 03:59:27;;;;;;;16.10;10.02;;;;;;;8.05;88.65;100277.03;5110158;28;20028;-31
2022/05/04 04:01:52;;;;;;;15.43;10.57;;;;;;;8.17;86.96;100287.94;5109972;28;20028;-30
2022/05/04 04:04:18;;;;;;;15.55;9.85;;;;;;;7.90;88.18;100273.69;5091435;28;20030;-29
2022/05/04 04:06:43;;;;;;;15.75;10.77;;;;;;;7.90;88.78;100289.63;5091323;28;20035;-32
2022/05/04 04:09:08;;;;;;;16.92;11.07;;;;;;;7.98;87.48;100273.53;5109382;28;20023;-29
2022/05/04 04:11:34;;;;;;;16.08;11.13;;;;;;;8.19;86.75;100291.22;5110183;28;20034;-33
2022/05/04 04:14:00;;;;;;;19.17;10.65;;;;;;;8.48;84.99;100291.13;5109865;28;20175;-32
2022/05/04 04:16:25;;;;;;;17.42;11.88;;;;;;;8.35;84.88;100291.88;5109893;28;20024;-32
2022/05/04 04:18:51;;;;;;;15.63;11.05;;;;;;;8.08;85.36;100275.81;5109735;28;20027;-32
2022/05/04 04:24:00;;;;;;;15.55;10.40;;;;;;;8.24;86.22;100294.09;5109695;28;20039;-30
2022/05/04 04:26:26;;;;;;;15.10;10.20;;;;;;;8.27;86.09;100284.88;5109626;28;20027;-29
2022/05/04 04:28:51;;;;;;;15.70;9.68;;;;;;;8.34;85.27;100277.78;5109750;28;20066;-33
2022/05/04 04:31:18;;;;;;;14.70;10.10;;;;;;;8.09;85.46;100268.66;5090816;28;20475;-31
2022/05/04 04:33:43;;;;;;;15.73;10.75;;;;;;;8.06;87.44;100272.53;5090870;28;20034;-32
2022/05/04 04:36:09;;;;;;;15.98;9.82;;;;;;;8.19;86.76;100271.78;5109423;28;20031;-29
2022/05/04 04:38:35;;;;;;;14.15;9.30;;;;;;;8.35;87.26;100270.63;5109209;28;20702;-29
2022/05/04 04:41:00;;;;;;;16.13;9.98;;;;;;;8.48;85.67;100278.69;5090446;28;20483;-29
2022/05/04 04:43:26;;;;;;;14.27;9.98;;;;;;;8.64;85.64;100291.59;5091080;28;20032;-30
2022/05/04 04:45:51;;;;;;;15.50;9.90;;;;;;;8.61;85.49;100297.31;5109387;28;20027;-33
2022/05/04 04:48:17;;;;;;;13.15;8.93;;;;;;;8.50;85.96;100289.94;5108762;28;20023;-30
2022/05/04 04:50:43;;;;;;;13.60;8.80;;;;;;;8.73;85.72;100294.91;5091251;28;20559;-29
2022/05/04 04:53:09;;;;;;;14.68;8.85;;;;;;;8.67;85.65;100289.56;5090645;28;20035;-31
2022/05/04 04:55:34;;;;;;;14.13;9.60;;;;;;;9.00;83.56;100310.91;5108756;28;20777;-32
2022/05/04 04:58:00;;;;;;;13.32;9.20;;;;;;;9.13;83.95;100304.78;5109072;28;20039;-29
2022/05/04 05:00:26;;;;;;;12.20;8.32;;;;;;;8.89;85.30;100299.03;5090621;28;20112;-29
2022/05/04 05:02:52;;;;;;;11.95;8.00;;;;;;;9.00;84.85;100295.75;5108608;28;20069;-29
2022/05/04 05:05:17;;;;;;;13.35;8.98;;;;;;;8.89;85.79;100301.69;5108776;28;20084;-31
2022/05/04 05:07:43;;;;;;;12.90;8.70;;;;;;;9.22;86.95;100304.38;5090598;28;20198;-36
2022/05/04 05:10:09;;;;;;;12.63;8.75;;;;;;;9.28;84.90;100308.06;5108630;28;20024;-31
2022/05/04 05:12:34;;;;;;;12.18;8.70;;;;;;;9.24;83.90;100277.56;5108557;28;20031;-34
2022/05/04 05:17:45;;;;;;;14.60;9.55;;;;;;;9.40;84.98;100294.97;5108401;28;20549;-30
2022/05/04 05:20:11;;;;;;;13.73;8.80;;;;;;;9.28;84.60;100301.94;5089091;28;20058;-37
2022/05/04 05:22:36;;;;;;;12.57;8.90;;;;;;;9.14;86.00;100296.59;5089901;28;20407;-30
2022/05/04 05:25:03;;;;;;;12.13;8.75;;;;;;;9.13;nan;100292.28;5107914;28;20031;-30
2022/05/04 05:27:32;;;;;;;13.95;9.07;;;;;;;8.82;87.20;100293.66;5089661;28;20023;-31
2022/05/04 05:29:58;;;;;;;16.20;10.40;;;;;;;8.95;86.66;100286.72;5089506;28;20052;-30
2022/05/04 05:32:24;;;;;;;13.57;9.50;;;;;;;8.80;87.61;100293.06;5089988;28;20038;-32
2022/05/04 05:34:50;;;;;;;13.55;9.55;;;;;;;8.69;87.75;100256.44;5089583;28;20345;-30
2022/05/04 05:37:16;;;;;;;14.80;10.65;;;;;;;8.79;87.80;100283.44;5107748;28;20032;-29
2022/05/04 05:39:42;;;;;;;14.63;10.25;;;;;;;9.03;87.55;100290.03;5089917;28;20052;-30
2022/05/04 05:42:08;;;;;;;14.60;9.32;;;;;;;9.03;87.81;100289.19;5107918;28;20031;-29
2022/05/04 05:44:34;;;;;;;14.18;10.07;;;;;;;8.85;86.33;100292.47;5107876;28;20532;-30
2022/05/04 05:47:00;;;;;;;12.10;8.60;;;;;;;8.82;87.52;100301.66;5107780;28;20051;-34
2022/05/04 05:49:25;;;;;;;14.00;9.90;;;;;;;8.98;87.63;100304.97;5107869;28;20046;-32
2022/05/04 05:51:51;;;;;;;14.52;9.32;;;;;;;9.24;86.24;100312.97;5089431;28;20104;-29
2022/05/04 05:54:17;;;;;;;12.15;8.07;;;;;;;9.03;84.28;100282.06;5107847;28;20028;-30
2022/05/04 05:56:42;;;;;;;11.45;7.95;;;;;;;9.16;85.93;100294.53;5107468;28;20043;-31
2022/05/04 05:59:08;;;;;;;13.65;9.90;;;;;;;9.25;85.58;100288.00;5107245;28;20467;-29
2022/05/04 06:01:34;;;;;;;12.93;8.73;;;;;;;9.55;84.91;100279.59;5107392;28;20451;-33
2022/05/04 06:03:59;;;;;;;11.65;8.23;;;;;;;9.93;83.02;100288.72;5089122;28;20035;-32
2022/05/04 06:06:24;;;;;;;12.45;8.40;;;;;;;10.23;81.19;100297.03;5107310;28;20051;-31
2022/05/04 06:08:50;;;;;;;10.90;7.25;;;;;;;10.51;81.61;100303.94;5088937;28;20043;-32
2022/05/04 06:11:15;;;;;;;11.32;7.25;;;;;;;10.61;80.61;100317.63;5107137;28;20039;-34
2022/05/04 06:13:41;;;;;;;10.45;6.65;;;;;;;10.86;78.62;100317.69;5107503;28;20522;-29
2022/05/04 06:16:06;;;;;;;11.90;7.28;;;;;;;10.72;79.89;100298.28;5107513;28;20471;-30
2022/05/04 06:18:31;;;;;;;10.13;7.00;;;;;;;10.93;76.96;100304.31;5107448;28;20501;-31
2022/05/04 06:21:00;;;;;;;8.52;6.20;;;;;;;11.08;75.37;100302.16;5088957;28;20027;-30
2022/05/04 06:23:26;;;;;;;11.40;7.07;;;;;;;11.18;77.26;100312.38;5088861;28;20037;-30
2022/05/04 06:25:51;;;;;;;9.90;7.05;;;;;;;11.46;77.46;100298.56;5088825;28;20410;-31
2022/05/04 06:28:17;;;;;;;9.70;6.70;;;;;;;11.77;76.56;100300.34;5088772;28;20084;-30
2022/05/04 06:36:11;;;;;;;10.80;6.93;;;;;;;11.89;75.68;100305.81;5106926;28;20034;-30
2022/05/04 06:38:36;;;;;;;11.77;7.15;;;;;;;11.74;75.03;100316.00;5107143;28;20048;-35
2022/05/04 06:41:05;;;;;;;9.73;6.95;;;;;;;12.08;75.07;100287.13;5106904;28;20147;-33
2022/05/04 06:43:31;;;;;;;11.07;6.25;;;;;;;12.70;75.81;100293.09;5107054;28;20418;-29
2022/05/04 06:45:57;;;;;;;7.97;5.72;;;;;;;13.06;73.47;100297.53;5088773;28;20026;-29
2022/05/04 06:48:22;;;;;;;8.93;6.22;;;;;;;13.40;70.55;100297.00;5107455;28;20016;-32
2022/05/04 06:50:48;;;;;;;8.25;5.82;;;;;;;13.69;67.82;100319.41;5107082;28;20030;-29
2022/05/04 06:53:13;;;;;;;7.72;5.20;;;;;;;13.70;67.28;100309.50;5106764;28;20054;-36
2022/05/04 06:55:38;;;;;;;8.50;5.75;;;;;;;13.77;68.05;100302.13;5106880;28;20117;-29
2022/05/04 06:58:04;;;;;;;9.00;5.85;;;;;;;14.10;67.29;100328.34;5107134;28;20419;-29
2022/05/04 07:00:29;;;;;;;8.20;5.75;;;;;;;14.52;67.65;100324.63;5088695;28;20028;-30
2022/05/04 07:02:55;;;;;;;9.20;6.45;;;;;;;14.21;68.08;100308.72;5106740;28;20023;-30
2022/05/04 07:05:20;;;;;;;7.85;5.28;;;;;;;14.24;66.59;100318.16;5106915;28;20038;-32
2022/05/04 07:07:46;;;;;;;7.97;5.40;;;;;;;14.42;65.84;100319.88;5106658;28;20039;-30
2022/05/04 07:10:11;;;;;;;8.70;5.07;;;;;;;14.39;64.86;100331.09;5106867;28;20415;-32
2022/05/04 07:12:37;;;;;;;8.20;5.15;;;;;;;14.48;64.28;100302.81;5106696;28;20042;-32
2022/05/04 07:15:03;;;;;;;8.95;5.30;;;;;;;14.36;67.29;100310.91;5106523;28;20027;-35
2022/05/04 07:17:28;;;;;;;12.23;5.63;;;;;;;14.49;65.10;100312.50;5088157;28;20032;-30
2022/05/04 07:19:54;;;;;;;7.93;5.60;;;;;;;14.62;65.01;100311.44;5106778;28;20024;-31
2022/05/04 07:22:21;;;;;;;9.45;5.35;;;;;;;14.77;62.95;100306.38;5106594;28;20024;-32
2022/05/04 07:24:47;;;;;;;8.98;6.22;;;;;;;14.86;65.11;100304.09;5106711;28;20501;-33
2022/05/04 07:27:12;;;;;;;7.65;5.38;;;;;;;14.62;66.39;100311.44;5088171;28;20516;-32
2022/05/04 07:29:37;;;;;;;7.85;5.05;;;;;;;14.25;64.83;100299.16;5106611;28;20016;-30
2022/05/04 07:32:03;;;;;;;8.55;5.22;;;;;;;14.00;66.34;100285.22;5088202;28;20112;-30
2022/05/04 07:34:31;;;;;;;8.63;6.00;;;;;;;14.62;68.24;100303.38;5087838;28;20122;-29
2022/05/04 07:36:57;;;;;;;10.20;5.75;;;;;;;14.43;64.95;100279.41;5087668;28;20062;-34
2022/05/04 07:42:24;;;;;;;7.68;4.93;;;;;;;14.75;63.80;100307.66;5093156;28;20039;-30
2022/05/04 07:45:00;;;;;;;8.05;5.35;;;;;;;15.01;62.35;100300.88;5088551;28;20032;-32
2022/05/04 07:47:27;;;;;;;8.30;5.28;;;;;;;14.77;63.63;100284.91;5071579;28;20063;-31
2022/05/04 07:49:53;;;;;;;8.50;5.18;;;;;;;15.16;64.17;100287.72;5089734;28;20042;-31
2022/05/04 07:52:18;;;;;;;9.90;6.10;;;;;;;15.81;65.54;100293.53;5089514;28;20541;-30
2022/05/04 07:54:44;;;;;;;8.27;5.43;;;;;;;15.57;60.19;100315.22;5089703;28;20479;-29
2022/05/04 07:57:09;;;;;;;8.07;5.03;;;;;;;15.20;61.34;100309.50;5089170;28;20020;-30
2022/05/04 07:59:35;;;;;;;11.57;5.75;;;;;;;15.46;63.06;100303.47;5089611;28;20028;-31
2022/05/04 08:04:44;;;;;;;7.35;4.40;;;;;;;16.18;60.74;100309.91;5089749;28;20079;-31
2022/05/04 08:07:10;;;;;;;8.38;4.93;;;;;;;16.48;64.42;100308.63;5089278;28;20040;-29
2022/05/04 08:09:36;;;;;;;8.85;4.80;;;;;;;16.61;61.60;100288.56;5089411;28;20059;-29
2022/05/04 08:12:06;;;;;;;7.68;4.82;;;;;;;16.79;61.17;100290.91;5089517;28;20034;-31
2022/05/04 08:14:33;;;;;;;7.88;4.55;;;;;;;17.04;58.14;100294.94;5070968;28;20039;-29
2022/05/04 08:16:59;;;;;;;7.20;4.50;;;;;;;17.29;59.89;100301.63;5070864;28;20028;-34
2022/05/04 08:19:24;;;;;;;8.00;5.22;;;;;;;17.24;60.68;100294.31;5087980;28;20054;-31
2022/05/04 08:21:50;;;;;;;7.53;4.55;;;;;;;16.98;56.38;100291.41;5089089;28;20036;-30
2022/05/04 08:24:15;;;;;;;7.70;5.10;;;;;;;16.86;59.66;100282.69;5089265;28;20028;-33
2022/05/04 08:26:42;;;;;;;7.07;4.50;;;;;;;17.26;60.00;100286.78;5089148;28;20032;-30
2022/05/04 08:29:08;;;;;;;8.50;4.95;;;;;;;17.38;61.77;100289.28;5070449;28;20061;-32
2022/05/04 08:31:33;;;;;;;8.82;4.75;;;;;;;16.98;56.97;100298.66;5089198;28;20103;-35
2022/05/04 08:33:59;;;;;;;7.15;3.97;;;;;;;16.75;57.24;100270.94;5089633;28;20480;-31
2022/05/04 08:36:24;;;;;;;5.75;3.63;;;;;;;16.59;57.04;100294.22;5088950;28;20053;-31
2022/05/04 08:38:50;;;;;;;6.28;3.92;;;;;;;16.41;58.51;100276.53;5088838;28;20052;-29
2022/05/04 08:41:15;;;;;;;6.55;3.60;;;;;;;16.81;60.86;100286.09;5088783;28;20020;-34
2022/05/04 08:43:43;;;;;;;5.72;3.40;;;;;;;17.05;58.93;100296.59;5070368;28;20506;-31
2022/05/04 08:46:13;;;;;;;9.05;3.88;;;;;;;16.90;58.99;100274.88;5070721;28;20031;-34
2022/05/04 08:48:40;;;;;;;5.10;3.22;;;;;;;16.71;55.83;100271.72;5070397;28;20117;-30
2022/05/04 08:51:07;;;;;;;6.18;3.72;;;;;;;17.41;60.73;100273.41;5088379;28;20063;-31
2022/05/04 08:53:34;;;;;;;6.90;3.92;;;;;;;17.39;57.47;100285.53;5070223;28;20718;-31
2022/05/04 08:56:00;;;;;;;6.43;4.30;;;;;;;17.31;56.41;100273.34;5088469;28;20024;-31
2022/05/04 08:58:25;;;;;;;7.57;4.60;;;;;;;17.62;59.05;100295.13;5069999;28;20085;-34
2022/05/04 09:00:51;;;;;;;6.40;4.35;;;;;;;17.71;59.19;100290.84;5088657;28;20024;-30
2022/05/04 09:03:18;;;;;;;7.00;4.72;;;;;;;17.48;57.18;100278.59;5069684;28;20024;-31
2022/05/04 09:05:53;;;;;;;8.32;5.00;;;;;;;17.53;57.40;100285.88;5086771;28;20564;-30
2022/05/04 09:08:19;;;;;;;6.85;4.40;;;;;;;17.79;57.69;100289.56;5070120;28;20490;-33
2022/05/04 09:10:45;;;;;;;8.20;4.75;;;;;;;17.56;57.80;100285.38;5087687;28;20105;-30
2022/05/04 09:13:11;;;;;;;9.88;5.70;;;;;;;17.57;59.08;100260.84;5088203;28;20419;-34
2022/05/04 09:15:42;;;;;;;7.10;4.50;;;;;;;18.26;56.30;100275.22;5069723;28;20028;-34
2022/05/04 09:18:11;;;;;;;6.93;4.43;;;;;;;17.76;57.76;100273.91;5088592;28;20069;-33
2022/05/04 09:20:45;;;;;;;8.45;4.70;;;;;;;17.52;57.72;100273.50;5087875;28;20020;-29
2022/05/04 09:23:19;;;;;;;7.10;4.47;;;;;;;17.90;57.78;100274.25;5087761;28;20032;-36
2022/05/04 09:25:48;;;;;;;8.38;4.32;;;;;;;18.20;57.75;100273.59;5088004;28;20115;-34
2022/05/04 09:28:15;;;;;;;6.60;5.05;;;;;;;18.36;54.53;100275.25;5069767;28;20035;-32
2022/05/04 09:30:49;;;;;;;6.47;4.10;;;;;;;18.53;54.37;100266.97;5087677;28;20416;-30
2022/05/04 09:33:19;;;;;;;6.80;4.60;;;;;;;18.92;54.73;100271.06;5087544;28;20051;-31
2022/05/04 09:35:45;;;;;;;8.55;4.65;;;;;;;19.04;51.25;100245.41;5087453;28;20383;-36
2022/05/04 09:46:39;;;;;;;6.47;2.90;;;;;;;19.14;48.63;100263.50;5087684;28;20031;-30
2022/05/04 09:49:16;;;;;;;5.82;3.00;;;;;;;19.01;48.03;100258.66;5069388;28;20044;-31
2022/05/04 09:51:48;;;;;;;5.60;3.60;;;;;;;18.89;45.85;100255.41;5069256;28;20030;-30
2022/05/04 09:54:27;;;;;;;5.20;3.58;;;;;;;19.95;52.48;100253.63;5069151;28;20040;-31
2022/05/04 09:56:53;;;;;;;5.25;3.38;;;;;;;19.65;48.22;100255.31;5068778;28;20494;-38
2022/05/04 09:59:23;;;;;;;6.70;3.70;;;;;;;19.85;45.65;100248.25;5087607;28;20039;-30
2022/05/04 10:01:51;;;;;;;5.22;3.22;;;;;;;20.16;42.85;100237.31;5069082;28;20036;-34
2022/05/04 10:04:17;;;;;;;;;;;;;;;20.52;44.55;100246.03;5069381;28;20060;-31
2022/05/04 10:06:43;;;;;;;5.05;3.50;;;;;;;20.23;45.41;100227.78;5068529;28;20012;-29
2022/05/04 10:09:10;;;;;;;6.57;3.33;;;;;;;20.54;45.47;100237.66;5086592;28;20027;-32
2022/05/04 10:11:37;;;;;;;5.55;3.15;;;;;;;20.41;43.37;100234.47;5069184;28;20060;-34
2022/05/04 10:14:09;;;;;;;4.70;3.08;;;;;;;20.87;43.57;100234.16;5069029;28;20050;-30
2022/05/04 10:17:04;;;;;;;4.90;3.30;;;;;;;20.57;44.08;100231.66;5086899;28;20494;-30
2022/05/04 10:19:51;;;;;;;6.20;4.05;;;;;;;20.84;44.58;100232.03;5077300;28;20047;-32
2022/05/04 10:22:24;;;;;;;6.03;3.57;;;;;;;20.84;42.69;100228.50;5087222;28;20036;-33
2022/05/04 10:24:53;;;;;;;6.47;3.80;;;;;;;20.57;44.33;100202.66;5068913;28;20466;-30
2022/05/04 10:27:27;;;;;;;6.30;3.70;;;;;;;21.26;45.51;100221.63;5068909;28;20556;-31
2022/05/04 10:32:51;;;;;;;6.78;3.50;;;;;;;21.21;44.58;100203.50;5087289;28;20031;-33
2022/05/04 10:35:17;;;;;;;4.47;2.90;;;;;;;21.10;39.45;100217.44;5086837;28;20042;-30
2022/05/04 10:38:13;;;;;;;4.75;3.33;;;;;;;21.81;42.29;100211.28;5068724;28;20048;-34
2022/05/04 10:40:45;;;;;;;5.28;3.30;;;;;;;21.78;39.52;100205.63;5078912;28;20071;-30
2022/05/04 10:43:13;;;;;;;6.00;3.20;;;;;;;21.28;43.92;100182.25;5068330;28;20032;-34
2022/05/04 10:45:40;;;;;;;4.55;3.00;;;;;;;22.08;46.90;100194.34;5068653;28;20478;-32
2022/05/04 10:48:21;;;;;;;6.07;2.80;;;;;;;21.81;43.51;100196.91;5068435;28;20038;-32
2022/05/04 10:50:49;;;;;;;4.40;2.63;;;;;;;21.88;42.86;100170.19;5086825;28;20089;-30
2022/05/04 10:53:23;;;;;;;4.40;2.50;;;;;;;21.89;38.75;100196.25;5086490;28;20099;-29
2022/05/04 10:56:01;;;;;;;5.03;2.83;;;;;;;22.12;40.90;100193.78;5086564;28;20103;-31
2022/05/04 10:58:52;;;;;;;4.22;2.55;;;;;;;22.33;38.96;100195.16;5086442;28;20777;-32
2022/05/04 11:01:32;;;;;;;6.07;2.60;;;;;;;22.70;37.29;100189.94;5086252;28;20028;-30
2022/05/04 11:04:18;;;;;;;4.15;2.38;;;;;;;22.32;35.57;100198.16;5068355;28;20040;-29
2022/05/04 11:06:52;;;;;;;4.93;2.50;;;;;;;22.90;35.61;100191.53;5085624;28;20105;-33
2022/05/04 11:09:31;;;;;;;2.83;2.17;;;;;;;23.27;39.65;100196.06;5086284;28;20082;-31
2022/05/04 11:12:02;;;;;;;3.58;2.70;;;;;;;23.10;35.46;100196.63;5086598;28;20132;-29
2022/05/04 11:14:29;;;;;;;4.45;2.38;;;;;;;23.04;36.96;100186.97;5068299;28;20032;-30
2022/05/04 11:16:57;;;;;;;2.88;2.05;;;;;;;22.51;36.81;100176.41;5085990;28;20020;-32
2022/05/04 11:19:25;;;;;;;4.22;2.30;;;;;;;22.77;36.40;100182.25;5089603;28;20499;-33
2022/05/04 11:21:50;;;;;;;4.97;2.20;;;;;;;22.83;37.17;100170.97;5072071;28;20208;-29
2022/05/04 11:24:16;;;;;;;4.10;2.05;;;;;;;22.84;34.39;100159.00;5090182;28;20351;-31
2022/05/04 11:26:46;;;;;;;6.28;2.50;;;;;;;23.61;34.67;100173.09;5071868;28;20032;-33
2022/05/04 11:29:33;;;;;;;3.90;2.35;;;;;;;23.45;35.99;100165.22;5071673;28;20127;-30
2022/05/04 11:32:01;;;;;;;3.13;2.38;;;;;;;23.06;35.83;100158.34;5071726;28;20445;-32
2022/05/04 11:34:30;;;;;;;4.82;2.25;;;;;;;23.17;35.15;100180.75;5071370;28;20121;-34
2022/05/04 11:36:57;;;;;;;4.05;2.20;;;;;;;23.44;34.50;100173.72;5089764;28;20039;-30
2022/05/04 11:39:25;;;;;;;4.70;2.78;;;;;;;23.30;35.19;100168.25;5071270;28;20722;-33
2022/05/04 11:41:52;;;;;;;;;;;;;;;22.96;32.42;100163.94;5072062;28;20522;-31
2022/05/04 11:44:21;;;;;;;3.63;2.20;;;;;;;22.92;35.17;100167.56;5087148;28;19916;-30
2022/05/04 11:46:47;;;;;;;3.65;2.30;;;;;;;23.11;35.48;100170.25;5112283;27;20023;-34
2022/05/04 11:49:13;;;;;;;5.60;2.58;;;;;;;23.49;33.95;100148.31;5090817;28;20019;-33
2022/05/04 11:51:39;;;;;;;4.00;2.60;;;;;;;22.78;34.33;100154.75;5110087;28;20043;-31
2022/05/04 11:54:05;;;;;;;5.65;2.70;;;;;;;22.80;33.36;100166.16;5109413;28;20076;-30